createdAt,value
2023-04-11T00:01:29.780Z,17.55
2023-04-11T00:06:28.528Z,24.20
2023-04-11T00:11:28.978Z,22.02
2023-04-11T00:16:27.788Z,17.85
2023-04-11T00:21:26.846Z,21.75
2023-04-11T00:26:26.132Z,22.08
2023-04-11T00:31:26.561Z,22.10
2023-04-11T00:36:26.944Z,20.85
2023-04-11T00:41:25.930Z,20.73
2023-04-11T00:46:28.068Z,22.35
2023-04-11T00:51:27.327Z,22.20
2023-04-11T00:56:27.049Z,23.15
2023-04-11T01:01:30.337Z,23.38
2023-04-11T01:06:31.523Z,22.08
2023-04-11T01:11:30.810Z,20.20
2023-04-11T01:16:31.145Z,24.05
2023-04-11T01:21:30.136Z,22.33
2023-04-11T01:26:30.525Z,21.58
2023-04-11T01:31:29.311Z,21.80
2023-04-11T01:36:29.050Z,23.42
2023-04-11T01:41:29.475Z,31.55
2023-04-11T01:46:29.721Z,27.00
2023-04-11T01:51:28.493Z,25.80
2023-04-11T01:56:27.170Z,34.20
2023-04-11T02:01:26.666Z,30.58
2023-04-11T02:06:27.619Z,32.33
2023-04-11T02:11:26.454Z,28.50
2023-04-11T02:16:26.077Z,28.55
2023-04-11T02:21:26.849Z,27.95
2023-04-11T02:26:26.921Z,27.60
2023-04-11T02:31:27.980Z,30.73
2023-04-11T02:36:28.655Z,27.05
2023-04-11T02:41:27.563Z,29.38
2023-04-11T02:46:26.383Z,29.27
2023-04-11T02:51:27.269Z,30.70
2023-04-11T02:56:27.238Z,28.73
2023-04-11T03:01:29.494Z,30.50
2023-04-11T03:06:30.476Z,28.83
2023-04-11T03:11:32.461Z,30.67
2023-04-11T03:16:31.755Z,30.30
2023-04-11T03:21:32.228Z,31.15
2023-04-11T03:26:31.151Z,30.80
2023-04-11T03:31:35.486Z,30.15
2023-04-11T03:36:36.375Z,34.75
2023-04-11T03:41:37.280Z,32.47
2023-04-11T03:46:37.057Z,35.58
2023-04-11T03:51:38.897Z,29.67
2023-04-11T03:56:39.562Z,34.47
2023-04-11T04:01:42.156Z,38.35
2023-04-11T04:06:43.091Z,36.33
2023-04-11T04:11:42.171Z,34.92
2023-04-11T04:16:41.090Z,34.40
2023-04-11T04:21:40.316Z,29.90
2023-04-11T04:26:41.334Z,33.55
2023-04-11T04:31:57.207Z,31.75
2023-04-11T04:37:07.724Z,30.33
2023-04-11T04:42:13.757Z,38.53
2023-04-11T04:47:12.639Z,25.75
2023-04-11T04:52:11.720Z,30.92
2023-04-11T04:57:10.816Z,27.65
2023-04-11T05:02:11.736Z,27.52
2023-04-11T05:07:14.022Z,33.38
2023-04-11T05:12:13.856Z,23.70
2023-04-11T05:17:15.061Z,24.45
2023-04-11T05:22:14.180Z,22.20
2023-04-11T05:27:19.702Z,27.05
2023-04-11T05:32:20.493Z,24.63
2023-04-11T05:37:20.367Z,32.88
2023-04-11T05:42:19.213Z,28.38
2023-04-11T05:47:17.991Z,22.45
2023-04-11T05:52:20.222Z,22.88
2023-04-11T05:57:19.032Z,21.30
2023-04-11T06:02:17.879Z,19.85
2023-04-11T06:07:18.455Z,21.35
2023-04-11T06:12:17.447Z,26.00
2023-04-11T06:17:16.201Z,22.98
2023-04-11T06:22:14.936Z,24.13
2023-04-11T06:27:15.076Z,24.73
2023-04-11T06:32:13.939Z,22.20
2023-04-11T06:37:12.736Z,28.90
2023-04-11T06:42:14.382Z,21.33
2023-04-11T06:47:17.524Z,21.23
2023-04-11T06:52:16.225Z,24.30
2023-04-11T06:57:14.990Z,28.48
2023-04-11T07:02:13.844Z,37.35
2023-04-11T07:07:14.079Z,55.20
2023-04-11T07:12:12.836Z,30.92
2023-04-11T07:17:11.647Z,23.83
2023-04-11T07:22:20.489Z,20.52
2023-04-11T07:27:19.652Z,16.77
2023-04-11T07:32:18.466Z,21.35
2023-04-11T07:37:18.247Z,19.25
2023-04-11T07:42:20.513Z,17.67
2023-04-11T07:47:19.266Z,16.10
2023-04-11T07:52:18.174Z,15.45
2023-04-11T07:57:17.045Z,18.27
2023-04-11T08:02:17.309Z,16.15
2023-04-11T08:07:16.593Z,15.75
2023-04-11T08:12:21.347Z,24.80
2023-04-11T08:17:28.326Z,23.52
2023-04-11T08:22:28.276Z,39.67
2023-04-11T08:27:27.087Z,22.20
2023-04-11T08:32:27.470Z,17.15
2023-04-11T08:37:26.388Z,17.55
2023-04-11T08:42:26.211Z,17.25
2023-04-11T08:47:26.650Z,23.83
2023-04-11T08:52:26.373Z,15.35
2023-04-11T08:57:31.601Z,15.45
2023-04-11T09:02:32.203Z,16.45
2023-04-11T09:07:31.403Z,22.73
2023-04-11T09:12:31.440Z,15.52
2023-04-11T09:17:42.190Z,17.38
2023-04-11T09:22:43.043Z,13.50
2023-04-11T09:27:41.936Z,17.30
2023-04-11T09:32:42.842Z,18.58
2023-04-11T09:37:46.904Z,16.20
2023-04-11T09:42:47.038Z,14.63
2023-04-11T09:47:47.540Z,10.50
2023-04-11T09:52:46.982Z,36.28
2023-04-11T09:57:49.071Z,6.10
2023-04-11T10:02:50.725Z,10.40
2023-04-11T10:07:55.673Z,68.50
2023-04-11T10:12:54.476Z,18.70
2023-04-11T10:18:11.698Z,14.88
2023-04-11T10:23:11.376Z,4.90
2023-04-11T10:28:10.154Z,5.63
2023-04-11T10:33:14.784Z,11.90
2023-04-11T10:38:48.582Z,8.18
2023-04-11T10:43:48.133Z,6.97
2023-04-11T10:49:02.189Z,8.68
2023-04-11T10:54:02.452Z,17.30
2023-04-11T10:59:01.621Z,11.63
2023-04-11T11:04:02.017Z,10.68
2023-04-11T11:09:01.170Z,6.18
2023-04-11T11:14:01.126Z,8.30
2023-04-11T11:19:02.922Z,10.57
2023-04-11T11:24:03.103Z,12.43
2023-04-11T11:29:02.269Z,14.00
2023-04-11T11:34:18.484Z,14.30
2023-04-11T11:44:40.632Z,10.85
2023-04-11T11:49:48.125Z,7.85
2023-04-11T11:54:48.247Z,8.98
2023-04-11T11:59:53.269Z,7.85
2023-04-11T12:05:00.183Z,8.57
2023-04-11T12:10:01.406Z,10.18
2023-04-11T12:15:00.321Z,12.55
2023-04-11T12:20:00.537Z,12.40
2023-04-11T12:25:06.759Z,10.30
2023-04-11T12:30:06.550Z,9.60
2023-04-11T12:35:08.043Z,11.77
2023-04-11T12:40:15.514Z,10.23
2023-04-11T12:45:15.163Z,10.93
2023-04-11T12:50:14.001Z,14.57
2023-04-11T12:55:15.572Z,13.82
2023-04-11T13:00:15.705Z,10.35
2023-04-11T13:05:16.503Z,11.60
2023-04-11T13:10:17.672Z,11.48
2023-04-11T13:15:17.848Z,13.38
2023-04-11T13:20:16.981Z,11.15
2023-04-11T13:25:17.076Z,13.27
2023-04-11T13:30:16.470Z,11.45
2023-04-11T13:35:15.208Z,12.68
2023-04-11T13:40:15.256Z,13.68
2023-04-11T13:45:15.606Z,12.27
2023-04-11T13:50:14.388Z,15.25
2023-04-11T13:55:13.265Z,12.15
2023-04-11T14:00:13.454Z,12.50
2023-04-11T14:05:14.254Z,11.98
2023-04-11T14:15:22.767Z,13.98
2023-04-11T14:20:23.316Z,16.02
2023-04-11T14:25:22.582Z,15.38
2023-04-11T14:30:21.551Z,16.50
2023-04-11T14:35:20.512Z,16.92
2023-04-11T14:40:21.093Z,17.02
2023-04-11T14:45:20.662Z,16.48
2023-04-11T14:50:19.629Z,16.05
2023-04-11T14:55:20.105Z,16.67
2023-04-11T15:00:20.243Z,16.20
2023-04-11T15:05:19.994Z,22.10
2023-04-11T15:10:21.465Z,19.52
2023-04-11T15:15:20.512Z,18.20
2023-04-11T15:20:20.174Z,15.30
2023-04-11T15:25:20.415Z,15.55
2023-04-11T15:30:19.209Z,15.57
2023-04-11T15:35:20.395Z,21.92
2023-04-11T15:40:20.634Z,16.60
2023-04-11T15:45:19.758Z,15.55
2023-04-11T15:50:19.514Z,16.75
2023-04-11T15:55:20.206Z,18.50
2023-04-11T16:00:22.312Z,17.60
2023-04-11T16:05:22.108Z,16.40
2023-04-11T16:10:24.128Z,17.10
2023-04-11T16:15:23.609Z,17.40
2023-04-11T16:20:22.916Z,17.13
2023-04-11T16:25:23.064Z,18.05
2023-04-11T16:30:21.882Z,17.05
2023-04-11T16:35:20.838Z,19.23
2023-04-11T16:40:19.849Z,17.63
2023-04-11T16:45:20.136Z,21.42
2023-04-11T16:50:18.936Z,20.95
2023-04-11T16:55:17.975Z,19.00
2023-04-11T17:00:20.398Z,16.98
2023-04-11T17:05:20.621Z,15.43
2023-04-11T17:10:19.397Z,16.73
2023-04-11T17:15:18.136Z,16.15
2023-04-11T17:20:17.409Z,14.80
2023-04-11T17:25:18.000Z,17.58
2023-04-11T17:30:17.101Z,16.05
2023-04-11T17:35:16.054Z,17.98
2023-04-11T17:40:15.688Z,16.15
2023-04-11T17:45:18.239Z,15.45
2023-04-11T17:55:17.831Z,19.45
2023-04-11T18:00:23.032Z,19.38
2023-04-11T18:05:26.370Z,17.70
2023-04-11T18:10:26.251Z,21.77
2023-04-11T18:15:27.341Z,17.35
2023-04-11T18:20:26.799Z,19.58
2023-04-11T18:25:25.902Z,19.48
2023-04-11T18:30:26.331Z,20.52
2023-04-11T18:35:32.584Z,29.85
2023-04-11T18:40:46.227Z,29.80
2023-04-11T18:45:51.717Z,28.98
2023-04-11T18:51:03.318Z,30.45
2023-04-11T18:56:04.376Z,28.92
2023-04-11T19:01:14.856Z,30.40
2023-04-11T19:06:24.261Z,29.02
2023-04-11T19:11:25.110Z,20.48
2023-04-11T19:16:30.290Z,23.73
2023-04-11T19:21:29.856Z,20.77
2023-04-11T19:26:30.619Z,22.10
2023-04-11T19:31:33.211Z,22.05
2023-04-11T19:36:41.688Z,24.33
2023-04-11T19:41:48.852Z,37.67
2023-04-11T19:46:50.950Z,58.95
2023-04-11T19:51:53.906Z,29.30
2023-04-11T19:57:02.360Z,25.52
2023-04-11T20:02:02.673Z,23.40
2023-04-11T20:07:03.463Z,23.13
2023-04-11T20:12:03.573Z,22.75
2023-04-11T20:17:04.007Z,23.27
2023-04-11T20:22:03.094Z,19.83
2023-04-11T20:27:02.034Z,21.20
2023-04-11T20:32:01.708Z,24.23
2023-04-11T20:37:03.760Z,23.02
2023-04-11T20:42:02.490Z,22.35
2023-04-11T20:47:01.294Z,19.52
2023-04-11T20:52:01.481Z,23.17
2023-04-11T20:57:00.290Z,19.63
2023-04-11T21:01:59.163Z,18.80
2023-04-11T21:06:58.021Z,16.05
2023-04-11T21:11:58.253Z,13.15
2023-04-11T21:16:57.153Z,18.15
2023-04-11T21:21:57.587Z,17.40
2023-04-11T21:26:58.420Z,15.43
2023-04-11T21:31:57.292Z,14.52
2023-04-11T21:36:56.403Z,15.60
2023-04-11T21:41:55.209Z,14.25
2023-04-11T21:46:55.449Z,14.27
2023-04-11T21:51:54.326Z,18.40
2023-04-11T21:56:53.107Z,18.27
2023-04-11T22:01:52.526Z,17.80
2023-04-11T22:06:54.365Z,19.83
2023-04-11T22:11:53.241Z,25.60
2023-04-11T22:16:52.315Z,21.02
2023-04-11T22:21:55.845Z,18.88
2023-04-11T22:26:58.296Z,19.75
2023-04-11T22:31:57.296Z,20.23
2023-04-11T22:36:57.846Z,18.17
2023-04-11T22:41:56.676Z,19.35
2023-04-11T22:47:01.313Z,17.55
2023-04-11T22:52:02.278Z,18.20
2023-04-11T22:57:01.063Z,17.00
2023-04-11T23:02:00.138Z,21.48
2023-04-11T23:06:59.270Z,23.00
2023-04-11T23:11:59.597Z,17.45
2023-04-11T23:16:58.506Z,17.42
2023-04-11T23:21:57.603Z,17.00
2023-04-11T23:26:57.065Z,19.77
2023-04-11T23:31:57.405Z,19.33
2023-04-11T23:36:57.626Z,18.80
2023-04-11T23:41:57.190Z,17.33
2023-04-11T23:46:57.429Z,17.30
2023-04-11T23:51:56.438Z,18.95
2023-04-11T23:56:55.248Z,21.23
